createdAt,value
2018-08-23T00:00:37.916Z,69.00
2018-08-23T00:03:12.901Z,67.91
2018-08-23T00:05:45.101Z,67.78
2018-08-23T00:08:13.115Z,68.64
2018-08-23T00:10:41.097Z,68.10
2018-08-23T00:13:09.161Z,67.80
2018-08-23T00:15:37.274Z,68.28
2018-08-23T00:18:05.270Z,68.23
2018-08-23T00:20:36.199Z,68.08
2018-08-23T00:23:04.671Z,67.89
2018-08-23T00:25:32.864Z,68.45
2018-08-23T00:28:00.932Z,67.87
2018-08-23T00:30:29.725Z,68.46
2018-08-23T00:32:58.712Z,68.39
2018-08-23T00:35:26.764Z,68.58
2018-08-23T00:37:54.768Z,68.24
2018-08-23T00:40:22.809Z,68.19
2018-08-23T00:42:56.324Z,69.18
2018-08-23T00:45:24.334Z,69.35
2018-08-23T00:47:52.343Z,70.22
2018-08-23T00:50:29.544Z,70.19
2018-08-23T00:52:57.554Z,69.55
2018-08-23T00:55:28.962Z,69.42
2018-08-23T00:57:56.965Z,68.95
2018-08-23T01:00:26.159Z,69.51
2018-08-23T01:02:58.060Z,70.28
2018-08-23T01:05:31.570Z,69.98
2018-08-23T01:07:59.565Z,70.60
2018-08-23T01:10:27.553Z,70.11
2018-08-23T01:13:00.905Z,68.97
2018-08-23T01:15:29.623Z,69.87
2018-08-23T01:18:10.386Z,70.16
2018-08-23T01:20:39.163Z,70.49
2018-08-23T01:23:07.233Z,70.14
2018-08-23T01:25:36.634Z,69.79
2018-08-23T01:28:04.940Z,70.36
2018-08-23T01:30:33.029Z,69.54
2018-08-23T01:33:01.056Z,69.66
2018-08-23T01:35:29.092Z,70.68
2018-08-23T01:37:57.065Z,70.87
2018-08-23T01:40:25.096Z,70.20
2018-08-23T01:42:53.113Z,70.53
2018-08-23T01:45:21.120Z,70.28
2018-08-23T01:47:59.257Z,71.11
2018-08-23T01:50:27.800Z,70.18
2018-08-23T01:52:57.108Z,71.14
2018-08-23T01:55:25.793Z,72.18
2018-08-23T01:57:54.132Z,72.02
2018-08-23T02:00:24.312Z,72.06
2018-08-23T02:02:52.354Z,71.86
2018-08-23T02:05:20.345Z,72.36
2018-08-23T02:07:48.338Z,71.35
2018-08-23T02:10:16.345Z,71.98
2018-08-23T02:12:49.882Z,72.37
2018-08-23T02:15:17.969Z,71.71
2018-08-23T02:17:51.589Z,73.55
2018-08-23T02:20:19.953Z,73.68
2018-08-23T02:22:47.964Z,73.43
2018-08-23T02:25:17.052Z,73.26
2018-08-23T02:28:05.236Z,73.69
2018-08-23T02:30:54.717Z,74.12
2018-08-23T02:33:22.757Z,73.79
2018-08-23T02:36:22.492Z,73.57
2018-08-23T02:38:56.054Z,72.40
2018-08-23T02:41:24.056Z,72.59
2018-08-23T02:43:52.057Z,72.78
2018-08-23T02:46:20.054Z,73.51
2018-08-23T02:48:48.077Z,73.14
2018-08-23T02:51:16.081Z,73.64
2018-08-23T02:53:46.952Z,74.19
2018-08-23T02:56:18.370Z,74.03
2018-08-23T02:59:00.974Z,74.65
2018-08-23T03:01:30.759Z,74.39
2018-08-23T03:04:07.445Z,74.73
2018-08-23T03:06:39.999Z,75.82
2018-08-23T03:09:08.558Z,74.62
2018-08-23T03:11:37.261Z,74.68
2018-08-23T03:14:06.698Z,74.29
2018-08-23T03:16:47.646Z,74.55
2018-08-23T03:19:15.959Z,74.57
2018-08-23T03:21:44.229Z,74.52
2018-08-23T03:24:12.394Z,75.31
2018-08-23T03:26:40.641Z,74.60
2018-08-23T03:29:08.825Z,75.11
2018-08-23T03:31:36.833Z,74.97
2018-08-23T03:34:04.873Z,74.49
2018-08-23T03:36:32.914Z,74.60
2018-08-23T03:39:00.946Z,74.43
2018-08-23T03:41:28.937Z,74.83
2018-08-23T03:43:56.928Z,75.04
2018-08-23T03:46:24.932Z,74.00
2018-08-23T03:48:58.281Z,74.77
2018-08-23T03:51:26.468Z,76.52
2018-08-23T03:54:00.830Z,76.44
2018-08-23T03:56:28.824Z,76.67
2018-08-23T03:58:56.808Z,76.21
2018-08-23T04:01:24.829Z,76.44
2018-08-23T04:03:53.381Z,75.82
2018-08-23T04:06:31.683Z,75.70
2018-08-23T04:08:59.684Z,75.71
2018-08-23T04:11:27.689Z,75.28
2018-08-23T04:13:56.060Z,75.95
2018-08-23T04:16:26.766Z,76.06
2018-08-23T04:18:55.121Z,76.03
2018-08-23T04:21:23.164Z,76.33
2018-08-23T04:23:51.273Z,76.43
2018-08-23T04:26:19.662Z,77.58
2018-08-23T04:28:47.680Z,78.16
2018-08-23T04:31:15.724Z,77.95
2018-08-23T04:33:43.736Z,78.52
2018-08-23T04:36:31.192Z,77.49
2018-08-23T04:39:04.981Z,77.65
2018-08-23T04:41:33.276Z,77.35
2018-08-23T04:44:08.958Z,77.22
2018-08-23T04:46:36.949Z,75.94
2018-08-23T04:49:06.697Z,75.45
2018-08-23T04:51:35.513Z,74.86
2018-08-23T04:54:03.518Z,75.18
2018-08-23T04:56:31.960Z,74.23
2018-08-23T04:58:59.969Z,75.73
2018-08-23T05:01:27.959Z,75.89
2018-08-23T05:03:56.001Z,75.63
2018-08-23T05:06:23.980Z,76.52
2018-08-23T05:08:52.004Z,76.84
2018-08-23T05:11:20.050Z,76.75
2018-08-23T05:13:48.345Z,75.44
2018-08-23T05:16:16.666Z,74.65
2018-08-23T05:18:44.908Z,73.31
2018-08-23T05:21:12.945Z,72.27
2018-08-23T05:23:41.005Z,70.19
2018-08-23T05:26:12.888Z,69.02
2018-08-23T05:28:43.121Z,69.65
2018-08-23T05:31:11.109Z,69.18
2018-08-23T05:33:39.165Z,70.70
2018-08-23T05:36:12.561Z,71.80
2018-08-23T05:38:40.613Z,73.26
2018-08-23T05:41:13.140Z,74.25
2018-08-23T05:43:41.428Z,74.98
2018-08-23T05:46:09.604Z,75.40
2018-08-23T05:48:37.605Z,76.85
2018-08-23T05:51:07.746Z,76.13
2018-08-23T05:53:43.054Z,76.68
2018-08-23T05:56:11.136Z,76.98
2018-08-23T05:58:39.225Z,76.42
2018-08-23T06:01:07.313Z,76.92
2018-08-23T06:03:37.066Z,79.35
2018-08-23T06:06:05.145Z,78.52
2018-08-23T06:08:33.840Z,79.23
2018-08-23T06:11:09.073Z,81.79
2018-08-23T06:13:37.365Z,83.45
2018-08-23T06:16:05.568Z,82.87
2018-08-23T06:18:34.844Z,82.60
2018-08-23T06:21:02.913Z,84.19
2018-08-23T06:24:10.161Z,84.02
2018-08-23T06:26:46.358Z,83.11
2018-08-23T06:29:20.070Z,83.39
2018-08-23T06:31:51.079Z,82.88
2018-08-23T06:34:19.113Z,82.84
2018-08-23T06:36:47.477Z,81.92
2018-08-23T06:39:15.536Z,80.65
2018-08-23T06:41:43.809Z,82.18
2018-08-23T06:44:12.228Z,81.33
2018-08-23T06:46:40.240Z,83.17
2018-08-23T06:49:08.270Z,83.29
2018-08-23T06:51:36.300Z,82.45
2018-08-23T06:54:04.395Z,82.12
2018-08-23T06:56:35.348Z,80.15
2018-08-23T06:59:03.422Z,78.81
2018-08-23T07:01:37.647Z,79.42
2018-08-23T07:04:11.337Z,79.99
2018-08-23T07:06:39.399Z,80.23
2018-08-23T07:09:14.321Z,80.41
2018-08-23T07:11:42.533Z,79.58
2018-08-23T07:14:12.668Z,78.77
2018-08-23T07:16:41.569Z,78.32
2018-08-23T07:19:24.216Z,77.04
2018-08-23T07:21:52.797Z,77.45
2018-08-23T07:24:36.136Z,75.46
2018-08-23T07:27:04.938Z,75.14
2018-08-23T07:29:33.421Z,73.63
2018-08-23T07:32:03.680Z,72.73
2018-08-23T07:34:31.697Z,72.79
2018-08-23T07:37:02.981Z,73.27
2018-08-23T07:39:30.969Z,72.44
2018-08-23T07:41:58.983Z,72.75
2018-08-23T07:44:26.969Z,71.27
2018-08-23T07:46:54.994Z,71.30
2018-08-23T07:49:23.024Z,71.25
2018-08-23T07:51:52.309Z,71.26
2018-08-23T07:54:21.504Z,70.04
2018-08-23T07:56:49.557Z,68.38
2018-08-23T07:59:17.556Z,69.23
2018-08-23T08:01:45.586Z,70.09
2018-08-23T08:04:14.913Z,70.57
2018-08-23T08:06:43.102Z,69.89
2018-08-23T08:09:11.754Z,70.20
2018-08-23T08:11:47.064Z,69.34
2018-08-23T08:14:20.461Z,68.72
2018-08-23T08:16:48.564Z,67.13
2018-08-23T08:19:16.558Z,67.04
2018-08-23T08:21:44.636Z,65.95
2018-08-23T08:24:12.592Z,66.89
2018-08-23T08:26:40.644Z,66.45
2018-08-23T08:29:08.641Z,65.48
2018-08-23T08:31:36.691Z,64.46
2018-08-23T08:34:05.755Z,64.62
2018-08-23T08:36:34.469Z,63.97
2018-08-23T08:39:04.567Z,62.46
2018-08-23T08:41:33.385Z,63.69
2018-08-23T08:44:01.673Z,63.88
2018-08-23T08:46:29.681Z,62.16
2018-08-23T08:48:57.868Z,61.03
2018-08-23T08:51:28.593Z,59.68
2018-08-23T08:53:57.416Z,59.29
2018-08-23T08:56:29.072Z,57.09
2018-08-23T08:58:57.162Z,56.02
2018-08-23T09:01:25.135Z,55.73
2018-08-23T09:03:53.123Z,55.74
2018-08-23T09:06:27.545Z,54.36
2018-08-23T09:08:55.564Z,51.14
2018-08-23T09:11:23.986Z,50.80
2018-08-23T09:13:51.984Z,48.36
2018-08-23T09:16:22.725Z,47.08
2018-08-23T09:18:59.141Z,46.13
2018-08-23T09:21:27.481Z,47.08
2018-08-23T09:23:55.505Z,47.45
2018-08-23T09:26:28.952Z,48.67
2018-08-23T09:28:56.945Z,47.40
2018-08-23T09:31:25.039Z,46.83
2018-08-23T09:33:53.039Z,48.17
2018-08-23T09:36:21.034Z,47.02
2018-08-23T09:38:49.128Z,48.30
2018-08-23T09:41:17.265Z,46.47
2018-08-23T09:43:45.266Z,46.13
2018-08-23T09:46:13.377Z,44.05
2018-08-23T09:48:41.428Z,44.86
2018-08-23T09:51:16.948Z,45.77
2018-08-23T09:53:45.000Z,46.21
2018-08-23T09:56:44.174Z,45.10
2018-08-23T09:59:12.140Z,44.18
2018-08-23T10:01:45.473Z,45.38
2018-08-23T10:04:18.835Z,44.85
2018-08-23T10:06:52.069Z,46.24
2018-08-23T10:09:23.488Z,45.31
2018-08-23T10:11:56.887Z,46.33
2018-08-23T10:14:30.347Z,43.96
2018-08-23T10:17:03.713Z,45.39
2018-08-23T10:19:37.068Z,45.00
2018-08-23T10:22:10.505Z,44.92
2018-08-23T10:24:38.523Z,45.04
2018-08-23T10:27:06.528Z,46.34
2018-08-23T10:29:34.541Z,45.62
2018-08-23T10:32:02.628Z,45.71
2018-08-23T10:34:30.592Z,45.47
2018-08-23T10:36:58.597Z,44.31
2018-08-23T10:39:26.591Z,44.95
2018-08-23T10:41:54.589Z,44.28
2018-08-23T10:44:22.761Z,44.51
2018-08-23T10:46:55.600Z,44.40
2018-08-23T10:49:23.729Z,43.95
2018-08-23T10:51:51.793Z,43.11
2018-08-23T10:54:19.999Z,43.00
2018-08-23T10:56:48.164Z,42.78
2018-08-23T10:59:16.216Z,43.32
2018-08-23T11:01:44.200Z,41.83
2018-08-23T11:04:12.226Z,42.64
2018-08-23T11:06:45.776Z,44.67
2018-08-23T11:09:19.136Z,43.87
2018-08-23T11:11:47.247Z,41.88
2018-08-23T11:14:20.799Z,41.63
2018-08-23T11:16:54.424Z,41.30
2018-08-23T11:20:30.599Z,41.63
2018-08-23T11:22:58.646Z,41.01
2018-08-23T11:25:26.729Z,42.23
2018-08-23T11:27:55.121Z,40.38
2018-08-23T11:30:23.140Z,40.06
2018-08-23T11:32:52.657Z,39.80
2018-08-23T11:35:21.044Z,39.99
2018-08-23T11:37:49.661Z,39.09
2018-08-23T11:40:17.948Z,40.42
2018-08-23T11:42:46.095Z,38.80
2018-08-23T11:45:14.049Z,39.03
2018-08-23T11:47:42.137Z,39.00
2018-08-23T11:50:10.287Z,38.83
2018-08-23T11:52:38.345Z,37.90
2018-08-23T11:55:06.373Z,38.62
2018-08-23T11:57:34.413Z,38.63
2018-08-23T12:00:02.409Z,39.10
2018-08-23T12:02:30.397Z,36.75
2018-08-23T12:04:58.412Z,37.99
2018-08-23T12:07:26.411Z,37.68
2018-08-23T12:09:54.511Z,36.75
2018-08-23T12:12:23.108Z,37.98
2018-08-23T12:14:55.260Z,36.63
2018-08-23T12:17:23.553Z,37.60
2018-08-23T12:19:51.657Z,38.15
2018-08-23T12:22:23.849Z,36.70
2018-08-23T12:24:51.949Z,39.04
2018-08-23T12:27:20.232Z,38.69
2018-08-23T12:29:48.218Z,38.51
2018-08-23T12:32:16.300Z,37.56
2018-08-23T12:34:44.415Z,37.75
2018-08-23T12:37:17.988Z,36.36
2018-08-23T12:39:51.405Z,37.45
2018-08-23T12:42:24.752Z,36.10
2018-08-23T12:44:52.775Z,36.11
2018-08-23T12:47:20.997Z,36.29
2018-08-23T12:49:49.761Z,35.30
2018-08-23T12:52:18.531Z,35.10
2018-08-23T12:54:46.782Z,36.05
2018-08-23T12:57:15.013Z,36.40
2018-08-23T12:59:43.043Z,36.55
2018-08-23T13:02:11.211Z,37.57
2018-08-23T13:04:39.289Z,36.57
2018-08-23T13:07:07.458Z,35.75
2018-08-23T13:09:35.777Z,35.43
2018-08-23T13:12:03.860Z,36.33
2018-08-23T13:14:32.113Z,35.37
2018-08-23T13:17:00.418Z,34.22
2018-08-23T13:19:28.515Z,35.78
2018-08-23T13:22:01.993Z,34.96
2018-08-23T13:24:30.423Z,34.17
2018-08-23T13:26:58.453Z,32.94
2018-08-23T13:29:26.909Z,33.72
2018-08-23T13:31:55.400Z,33.71
2018-08-23T13:34:23.341Z,34.27
2018-08-23T13:36:51.603Z,35.63
2018-08-23T13:39:19.525Z,34.03
2018-08-23T13:41:47.522Z,35.05
2018-08-23T13:44:15.516Z,35.73
2018-08-23T13:46:43.540Z,36.20
2018-08-23T13:49:11.571Z,35.16
2018-08-23T13:51:39.702Z,34.54
2018-08-23T13:54:07.705Z,35.68
2018-08-23T13:56:35.716Z,35.72
2018-08-23T13:59:03.797Z,34.34
2018-08-23T14:01:31.865Z,35.14
2018-08-23T14:03:59.894Z,34.67
2018-08-23T14:06:28.052Z,35.72
2018-08-23T14:08:56.150Z,36.82
2018-08-23T14:11:24.209Z,36.04
2018-08-23T14:13:52.350Z,35.35
2018-08-23T14:16:20.533Z,37.75
2018-08-23T14:18:48.558Z,37.01
2018-08-23T14:21:16.662Z,37.39
2018-08-23T14:23:44.682Z,36.99
2018-08-23T14:26:12.729Z,38.10
2018-08-23T14:28:40.749Z,36.49
2018-08-23T14:31:08.779Z,36.94
2018-08-23T14:33:36.776Z,36.80
2018-08-23T14:36:04.885Z,36.24
2018-08-23T14:38:34.061Z,36.18
2018-08-23T14:41:01.934Z,36.42
2018-08-23T14:43:29.940Z,36.04
2018-08-23T14:46:03.443Z,36.82
2018-08-23T14:48:31.496Z,35.22
2018-08-23T14:50:59.484Z,36.71
2018-08-23T14:53:28.704Z,36.54
2018-08-23T14:56:02.096Z,36.01
2018-08-23T14:58:30.701Z,36.85
2018-08-23T15:00:58.732Z,37.28
2018-08-23T15:03:26.785Z,36.06
2018-08-23T15:05:54.764Z,37.25
2018-08-23T15:08:22.769Z,36.43
2018-08-23T15:10:50.871Z,36.94
2018-08-23T15:13:18.921Z,36.37
2018-08-23T15:15:48.746Z,35.82
2018-08-23T15:18:17.781Z,37.75
2018-08-23T15:20:45.885Z,36.98
2018-08-23T15:23:13.913Z,36.75
2018-08-23T15:25:41.904Z,36.70
2018-08-23T15:28:09.920Z,36.89
2018-08-23T15:30:37.904Z,37.09
2018-08-23T15:33:06.123Z,36.11
2018-08-23T15:35:34.116Z,36.64
2018-08-23T15:38:02.148Z,38.03
2018-08-23T15:40:30.152Z,37.51
2018-08-23T15:42:58.192Z,38.03
2018-08-23T15:45:26.213Z,39.16
2018-08-23T15:47:54.279Z,38.71
2018-08-23T15:50:22.917Z,38.64
2018-08-23T15:52:51.388Z,38.40
2018-08-23T15:55:19.646Z,37.77
2018-08-23T15:57:47.602Z,39.55
2018-08-23T16:00:15.695Z,38.88
2018-08-23T16:02:43.899Z,38.63
2018-08-23T16:05:11.949Z,39.14
2018-08-23T16:07:39.947Z,38.10
2018-08-23T16:10:08.485Z,38.52
2018-08-23T16:12:36.478Z,38.50
2018-08-23T16:15:09.829Z,39.14
2018-08-23T16:17:43.397Z,38.66
2018-08-23T16:20:16.745Z,40.00
2018-08-23T16:22:45.186Z,40.11
2018-08-23T16:25:13.229Z,40.33
2018-08-23T16:27:41.224Z,41.52
2018-08-23T16:30:09.269Z,41.28
2018-08-23T16:32:37.552Z,40.38
2018-08-23T16:35:05.596Z,40.49
2018-08-23T16:37:34.274Z,40.55
2018-08-23T16:40:02.484Z,40.04
2018-08-23T16:42:31.060Z,40.27
2018-08-23T16:44:59.141Z,41.54
2018-08-23T16:47:27.197Z,41.56
2018-08-23T16:49:55.215Z,40.75
2018-08-23T16:52:23.269Z,40.80
2018-08-23T16:54:51.286Z,40.38
2018-08-23T16:57:19.318Z,39.57
2018-08-23T16:59:47.334Z,40.63
2018-08-23T17:02:15.368Z,41.53
2018-08-23T17:04:44.577Z,40.65
2018-08-23T17:07:13.534Z,42.06
2018-08-23T17:09:41.558Z,40.91
2018-08-23T17:12:09.673Z,40.48
2018-08-23T17:14:37.664Z,41.20
2018-08-23T17:17:11.245Z,41.75
2018-08-23T17:19:46.185Z,41.68
2018-08-23T17:22:14.193Z,41.76
2018-08-23T17:24:42.354Z,42.29
2018-08-23T17:27:10.210Z,42.11
2018-08-23T17:29:38.408Z,42.38
2018-08-23T17:32:06.561Z,41.10
2018-08-23T17:34:34.601Z,42.47
2018-08-23T17:37:02.792Z,42.25
2018-08-23T17:39:30.793Z,42.28
2018-08-23T17:41:58.833Z,41.92
2018-08-23T17:44:26.854Z,41.81
2018-08-23T17:46:55.064Z,42.50
2018-08-23T17:49:23.180Z,42.48
2018-08-23T17:51:51.133Z,42.87
2018-08-23T17:54:19.208Z,42.86
2018-08-23T17:56:47.465Z,43.02
2018-08-23T17:59:15.551Z,42.95
2018-08-23T18:01:44.538Z,43.74
2018-08-23T18:04:12.639Z,42.82
2018-08-23T18:06:40.808Z,43.45
2018-08-23T18:09:10.417Z,43.15
2018-08-23T18:11:38.583Z,42.59
2018-08-23T18:14:06.733Z,43.73
2018-08-23T18:16:40.096Z,43.77
2018-08-23T18:19:08.105Z,43.22
2018-08-23T18:21:36.141Z,43.55
2018-08-23T18:24:04.266Z,43.56
2018-08-23T18:26:32.398Z,44.52
2018-08-23T18:29:00.417Z,44.26
2018-08-23T18:31:28.428Z,45.07
2018-08-23T18:33:56.457Z,45.69
2018-08-23T18:36:24.496Z,45.00
2018-08-23T18:38:52.568Z,45.22
2018-08-23T18:41:21.853Z,46.37
2018-08-23T18:43:49.904Z,46.26
2018-08-23T18:46:17.908Z,46.19
2018-08-23T18:48:46.917Z,47.34
2018-08-23T18:51:14.932Z,47.80
2018-08-23T18:53:42.984Z,47.00
2018-08-23T18:56:11.035Z,48.12
2018-08-23T18:58:39.131Z,47.88
2018-08-23T19:01:07.158Z,48.83
2018-08-23T19:03:35.238Z,49.21
2018-08-23T19:06:03.578Z,48.48
2018-08-23T19:08:31.633Z,48.83
2018-08-23T19:10:59.829Z,49.38
2018-08-23T19:13:28.239Z,49.99
2018-08-23T19:16:01.753Z,49.78
2018-08-23T19:18:29.779Z,50.21
2018-08-23T19:20:57.873Z,50.52
2018-08-23T19:23:25.968Z,51.15
2018-08-23T19:25:54.125Z,51.20
2018-08-23T19:28:22.188Z,51.19
2018-08-23T19:30:50.193Z,51.39
2018-08-23T19:33:19.283Z,52.02
2018-08-23T19:35:47.331Z,52.93
2018-08-23T19:38:15.537Z,52.12
2018-08-23T19:40:43.572Z,52.49
2018-08-23T19:43:11.681Z,52.41
2018-08-23T19:45:45.281Z,53.68
2018-08-23T19:48:13.450Z,53.00
2018-08-23T19:50:41.449Z,53.92
2018-08-23T19:53:09.628Z,54.60
2018-08-23T19:55:37.869Z,54.24
2018-08-23T19:58:05.932Z,54.17
2018-08-23T20:00:34.018Z,55.15
2018-08-23T20:03:02.164Z,55.06
2018-08-23T20:05:30.192Z,54.91
2018-08-23T20:07:58.221Z,55.69
2018-08-23T20:10:26.311Z,55.32
2018-08-23T20:12:54.361Z,56.09
2018-08-23T20:15:24.357Z,55.61
2018-08-23T20:17:52.922Z,56.69
2018-08-23T20:20:20.918Z,56.64
2018-08-23T20:22:48.916Z,57.10
2018-08-23T20:25:16.975Z,56.72
2018-08-23T20:27:46.112Z,56.79
2018-08-23T20:30:14.145Z,57.46
2018-08-23T20:32:42.180Z,57.63
2018-08-23T20:35:10.348Z,56.83
2018-08-23T20:37:38.729Z,57.03
2018-08-23T20:40:06.945Z,57.62
2018-08-23T20:42:34.972Z,57.61
2018-08-23T20:45:03.020Z,56.83
2018-08-23T20:47:31.056Z,57.26
2018-08-23T20:49:59.134Z,57.34
2018-08-23T20:52:27.204Z,57.83
2018-08-23T20:54:55.280Z,57.15
2018-08-23T20:57:23.289Z,57.28
2018-08-23T20:59:51.312Z,57.64
2018-08-23T21:02:19.418Z,57.63
2018-08-23T21:04:47.461Z,58.08
2018-08-23T21:07:15.545Z,58.97
2018-08-23T21:09:43.586Z,58.61
2018-08-23T21:12:11.580Z,59.24
2018-08-23T21:14:39.594Z,59.10
2018-08-23T21:17:08.261Z,59.58
2018-08-23T21:19:36.274Z,59.47
2018-08-23T21:22:04.288Z,59.85
2018-08-23T21:24:32.377Z,59.55
2018-08-23T21:27:00.767Z,60.32
2018-08-23T21:29:28.924Z,59.74
2018-08-23T21:31:57.013Z,61.06
2018-08-23T21:34:25.323Z,59.81
2018-08-23T21:39:20.513Z,60.74
2018-08-23T21:41:48.591Z,60.66
2018-08-23T21:44:16.638Z,60.71
2018-08-23T21:46:44.729Z,61.09
2018-08-23T21:49:12.725Z,61.57
2018-08-23T21:51:40.770Z,62.27
2018-08-23T21:54:08.820Z,61.82
2018-08-23T21:56:36.848Z,61.70
2018-08-23T21:59:04.892Z,61.25
2018-08-23T22:01:32.936Z,61.79
2018-08-23T22:04:01.105Z,60.98
2018-08-23T22:06:29.126Z,61.54
2018-08-23T22:08:57.303Z,61.75
2018-08-23T22:11:25.352Z,61.79
2018-08-23T22:13:53.488Z,62.70
2018-08-23T22:16:21.517Z,62.15
2018-08-23T22:18:49.628Z,62.63
2018-08-23T22:21:17.753Z,62.98
2018-08-23T22:23:45.777Z,61.89
2018-08-23T22:26:13.876Z,61.52
2018-08-23T22:28:41.993Z,62.14
2018-08-23T22:31:10.020Z,62.22
2018-08-23T22:33:38.121Z,62.09
2018-08-23T22:36:06.086Z,62.79
2018-08-23T22:38:34.106Z,62.38
2018-08-23T22:41:02.481Z,63.64
2018-08-23T22:43:30.490Z,63.11
2018-08-23T22:45:58.505Z,62.35
2018-08-23T22:48:26.522Z,63.15
2018-08-23T22:50:54.811Z,63.02
2018-08-23T22:55:47.701Z,63.84
2018-08-23T22:58:15.640Z,64.02
2018-08-23T23:00:43.668Z,62.97
2018-08-23T23:03:18.272Z,63.51
2018-08-23T23:05:46.296Z,63.72
2018-08-23T23:08:14.328Z,63.76
2018-08-23T23:10:42.368Z,63.77
2018-08-23T23:13:10.405Z,62.93
2018-08-23T23:15:38.440Z,64.61
2018-08-23T23:18:06.459Z,63.63
2018-08-23T23:20:34.481Z,63.56
2018-08-23T23:23:02.781Z,63.77
2018-08-23T23:25:30.805Z,63.59
2018-08-23T23:27:58.804Z,63.72
2018-08-23T23:30:26.798Z,63.83
2018-08-23T23:32:55.908Z,63.54
2018-08-23T23:35:23.903Z,65.22
2018-08-23T23:37:51.942Z,65.38
2018-08-23T23:40:20.096Z,64.52
2018-08-23T23:42:48.129Z,64.75
2018-08-23T23:45:16.184Z,65.14
2018-08-23T23:47:44.259Z,64.53
2018-08-23T23:50:12.261Z,65.15
2018-08-23T23:52:40.261Z,64.63
2018-08-23T23:55:08.407Z,65.46
2018-08-23T23:57:36.448Z,64.52
